Time;durP1;ratioP1;P1;durP2;ratioP2;P2;SDS_P1;SDS_P2;PMS_P1;PMS_P2;Temp;Humidity;BMP_temperature;BMP_pressure;BME280_temperature;BME280_humidity;BME280_pressure;Samples;Min_cycle;Max_cycle;Signal;HPM_P1;HPM_P2
2024/03/16 00:02:14;;;;;;;;;;;;;;;5.89;100.00;100813.25;5065406;28;19924;-67
2024/03/16 00:04:41;;;;;;;;;;;;;;;5.87;100.00;100815.16;5065921;28;20368;-67
2024/03/16 00:07:06;;;;;;;;;;;;;;;5.85;100.00;100803.88;5060160;28;20419;-64
2024/03/16 00:09:32;;;;;;;;;;;;;;;5.85;100.00;100810.97;5064681;28;19985;-65
2024/03/16 00:11:57;;;;;;;;;;;;;;;5.79;100.00;100807.03;5062919;28;19966;-68
2024/03/16 00:14:23;;;;;;;;;;;;;;;5.74;100.00;100809.22;5067563;28;20410;-64
2024/03/16 00:16:48;;;;;;;;;;;;;;;5.74;100.00;100803.94;5064688;28;20074;-66
2024/03/16 00:19:14;;;;;;;;;;;;;;;5.72;100.00;100811.16;5067336;28;19924;-66
2024/03/16 00:21:39;;;;;;;;;;;;;;;5.74;100.00;100808.38;5068277;28;20019;-66
2024/03/16 00:24:08;;;;;;;;;;;;;;;5.74;100.00;100801.28;5060971;28;19925;-67
2024/03/16 00:26:33;;;;;;;;;;;;;;;5.77;100.00;100803.66;5065864;28;20379;-65
2024/03/16 00:28:59;;;;;;;;;;;;;;;5.79;100.00;100811.50;5066682;28;19924;-66
2024/03/16 00:31:25;;;;;;;;;;;;;;;5.77;100.00;100800.19;5068863;28;19924;-67
2024/03/16 00:33:50;;;;;;;;;;;;;;;5.78;100.00;100799.22;5061241;28;19930;-66
2024/03/16 00:36:17;;;;;;;;;;;;;;;5.76;100.00;100796.69;5062577;28;19920;-67
2024/03/16 00:38:44;;;;;;;;;;;;;;;5.71;100.00;100793.63;5063481;28;20026;-64
2024/03/16 00:41:09;;;;;;;;;;;;;;;5.70;100.00;100791.09;5066526;28;19925;-67
2024/03/16 00:43:34;;;;;;;;;;;;;;;5.68;100.00;100785.13;5058628;28;19931;-68
2024/03/16 00:46:00;;;;;;;;;;;;;;;5.69;100.00;100786.78;5063211;28;19931;-66
2024/03/16 00:48:25;;;;;;;;;;;;;;;5.66;100.00;100779.97;5062259;28;20015;-65
2024/03/16 00:50:53;;;;;;;;;;;;;;;5.67;100.00;100776.34;5060806;28;19925;-65
2024/03/16 00:53:19;;;;;;;;;;;;;;;5.70;100.00;100769.97;5061126;28;20034;-65
2024/03/16 00:55:45;;;;;;;;;;;;;;;5.69;100.00;100777.06;5059678;28;20019;-65
2024/03/16 00:58:10;;;;;;;;;;;;;;;5.67;100.00;100779.00;5042097;28;19974;-65
2024/03/16 01:00:37;;;;;;;;;;;;;;;5.67;100.00;100771.06;5045668;28;19920;-67
2024/03/16 01:03:03;;;;;;;;;;;;;;;5.65;100.00;100778.28;5051969;28;19932;-65
2024/03/16 01:05:29;;;;;;;;;;;;;;;5.68;100.00;100772.75;5059589;28;19931;-66
2024/03/16 01:07:55;;;;;;;;;;;;;;;5.70;100.00;100776.09;5063424;28;19924;-67
2024/03/16 01:10:21;;;;;;;;;;;;;;;5.69;100.00;100769.13;5062933;28;19947;-66
2024/03/16 01:12:46;;;;;;;;;;;;;;;5.65;100.00;100777.47;5063188;28;19924;-63
2024/03/16 01:15:11;;;;;;;;;;;;;;;5.56;100.00;100771.16;5073049;28;20283;-65
2024/03/16 01:17:37;;;;;;;;;;;;;;;5.48;100.00;100766.50;5067012;28;20365;-66
2024/03/16 01:20:03;;;;;;;;;;;;;;;5.42;100.00;100766.19;5063162;28;19966;-68
2024/03/16 01:22:29;;;;;;;;;;;;;;;5.34;100.00;100758.09;5063597;28;20384;-67
2024/03/16 01:24:54;;;;;;;;;;;;;;;5.30;100.00;100765.44;5058762;28;19932;-68
2024/03/16 01:27:19;;;;;;;;;;;;;;;5.26;100.00;100762.22;5062435;28;19924;-65
2024/03/16 01:29:46;;;;;;;;;;;;;;;5.24;100.00;100764.16;5062227;28;19921;-66
2024/03/16 01:32:11;;;;;;;;;;;;;;;5.26;100.00;100759.56;5062538;28;19948;-66
2024/03/16 01:34:37;;;;;;;;;;;;;;;5.26;100.00;100756.09;5057389;28;20383;-68
2024/03/16 01:37:02;;;;;;;;;;;;;;;5.36;100.00;100758.78;5061538;28;20401;-65
2024/03/16 01:39:29;;;;;;;;;;;;;;;5.39;100.00;100762.00;5063205;28;19959;-67
2024/03/16 01:41:54;;;;;;;;;;;;;;;5.44;100.00;100754.53;5058863;28;20364;-65
2024/03/16 01:44:20;;;;;;;;;;;;;;;5.49;100.00;100751.50;5061114;28;20065;-67
2024/03/16 01:46:46;;;;;;;;;;;;;;;5.53;100.00;100752.94;5063093;28;19944;-65
2024/03/16 01:49:12;;;;;;;;;;;;;;;5.56;100.00;100752.66;5056058;28;19928;-66
2024/03/16 01:51:38;;;;;;;;;;;;;;;5.56;100.00;100745.56;5068210;28;19928;-67
2024/03/16 01:54:10;;;;;;;;;;;;;;;5.56;100.00;100745.56;5055399;28;19925;-66
2024/03/16 01:56:36;;;;;;;;;;;;;;;5.49;100.00;100738.28;5072338;28;19960;-64
2024/03/16 01:59:01;;;;;;;;;;;;;;;5.42;100.00;100735.34;5066628;28;19929;-65
2024/03/16 02:01:26;;;;;;;;;;;;;;;5.33;100.00;100735.28;5049649;28;19924;-65
2024/03/16 02:03:54;;;;;;;;;;;;;;;5.22;100.00;100739.69;5045697;28;20398;-67
2024/03/16 02:06:19;;;;;;;;;;;;;;;5.22;100.00;100744.13;5059802;28;19964;-68
2024/03/16 02:08:44;;;;;;;;;;;;;;;5.27;100.00;100741.94;5063080;28;19971;-67
2024/03/16 02:11:13;;;;;;;;;;;;;;;5.32;100.00;100738.88;5058161;28;19924;-64
2024/03/16 02:13:38;;;;;;;;;;;;;;;5.38;100.00;100739.19;5058157;28;19924;-65
2024/03/16 02:16:04;;;;;;;;;;;;;;;5.40;100.00;100733.78;5058803;28;20374;-66
2024/03/16 02:18:29;;;;;;;;;;;;;;;5.38;100.00;100733.91;5063739;28;19920;-67
2024/03/16 02:20:55;;;;;;;;;;;;;;;5.34;100.00;100736.97;5066042;28;19920;-65
2024/03/16 02:23:21;;;;;;;;;;;;;;;5.36;100.00;100735.03;5061732;28;20006;-64
2024/03/16 02:25:48;;;;;;;;;;;;;;;5.42;100.00;100730.03;5062387;28;19928;-66
2024/03/16 02:28:13;;;;;;;;;;;;;;;5.50;100.00;100732.06;5063044;28;19924;-67
2024/03/16 02:30:38;;;;;;;;;;;;;;;5.51;100.00;100731.09;5060027;28;19936;-65
2024/03/16 02:33:07;;;;;;;;;;;;;;;5.46;100.00;100728.81;5060882;28;19920;-66
2024/03/16 02:35:33;;;;;;;;;;;;;;;5.42;100.00;100726.56;5065333;28;19920;-68
2024/03/16 02:37:58;;;;;;;;;;;;;;;5.35;100.00;100728.91;5070506;28;19973;-64
2024/03/16 02:40:24;;;;;;;;;;;;;;;5.33;100.00;100720.28;5060846;28;19932;-66
2024/03/16 02:42:49;;;;;;;;;;;;;;;5.32;100.00;100715.97;5065917;28;20026;-64
2024/03/16 02:45:15;;;;;;;;;;;;;;;5.33;100.00;100722.06;5058258;28;20276;-64
2024/03/16 02:47:40;;;;;;;;;;;;;;;5.33;100.00;100724.72;5055759;28;19968;-68
2024/03/16 02:50:09;;;;;;;;;;;;;;;5.33;100.00;100715.00;5055078;28;19924;-67
2024/03/16 02:52:34;;;;;;;;;;;;;;;5.33;100.00;100715.00;5063186;28;20410;-67
2024/03/16 02:54:59;;;;;;;;;;;;;;;5.24;100.00;100721.91;5043641;28;19921;-69
2024/03/16 02:57:25;;;;;;;;;;;;;;;5.15;100.00;100720.00;5064918;28;20015;-68
2024/03/16 02:59:50;;;;;;;;;;;;;;;5.08;100.00;100715.38;5070412;28;19972;-66
2024/03/16 03:02:22;;;;;;;;;;;;;;;5.06;100.00;100722.59;5071732;28;19920;-67
2024/03/16 03:04:48;;;;;;;;;;;;;;;5.05;100.00;100715.63;5062525;28;19950;-68
2024/03/16 03:07:13;;;;;;;;;;;;;;;4.98;100.00;100715.31;5069050;28;20286;-65
2024/03/16 03:09:38;;;;;;;;;;;;;;;4.98;100.00;100710.03;5064028;28;19977;-64
2024/03/16 03:12:04;;;;;;;;;;;;;;;4.94;100.00;100709.47;5064936;28;19973;-64
2024/03/16 03:14:29;;;;;;;;;;;;;;;4.91;100.00;100708.84;5068171;28;20050;-63
2024/03/16 03:16:55;;;;;;;;;;;;;;;4.88;100.00;100714.38;5054310;28;20338;-65
2024/03/16 03:19:20;;;;;;;;;;;;;;;4.86;100.00;100706.59;5073844;28;20793;-66
2024/03/16 03:21:46;;;;;;;;;;;;;;;4.84;100.00;100702.41;5051451;28;20448;-66
2024/03/16 03:27:07;;;;;;;;;;;;;;;4.83;100.00;100706.03;5059530;28;19929;-64
2024/03/16 03:29:32;;;;;;;;;;;;;;;4.79;100.00;100700.16;5069356;28;19924;-67
2024/03/16 03:31:57;;;;;;;;;;;;;;;4.83;100.00;100695.47;5061311;28;19966;-66
2024/03/16 03:34:23;;;;;;;;;;;;;;;4.82;100.00;100696.44;5060233;28;20015;-64
2024/03/16 03:36:48;;;;;;;;;;;;;;;4.75;100.00;100693.47;5067389;28;19947;-65
2024/03/16 03:39:14;;;;;;;;;;;;;;;4.76;100.00;100689.88;5070090;28;19925;-65
2024/03/16 03:41:39;;;;;;;;;;;;;;;4.76;100.00;100694.31;5072011;28;19924;-66
2024/03/16 03:44:20;;;;;;;;;;;;;;;4.79;100.00;100694.06;5065956;28;19920;-66
2024/03/16 03:46:51;;;;;;;;;;;;;;;4.78;100.00;100693.22;5064016;28;19931;-68
2024/03/16 03:49:29;;;;;;;;;;;;;;;4.80;100.00;100685.16;5064682;28;20342;-65
2024/03/16 03:51:57;;;;;;;;;;;;;;;4.80;100.00;100680.72;5070973;28;20386;-67
2024/03/16 03:54:22;;;;;;;;;;;;;;;4.80;100.00;100682.53;5056989;28;19924;-68
2024/03/16 03:56:51;;;;;;;;;;;;;;;4.72;100.00;100677.91;5066375;28;20405;-68
2024/03/16 03:59:16;;;;;;;;;;;;;;;4.65;100.00;100672.31;5068978;28;19924;-66
2024/03/16 04:01:42;;;;;;;;;;;;;;;4.68;100.00;100675.66;5074209;28;19943;-66
2024/03/16 04:04:07;;;;;;;;;;;;;;;4.74;100.00;100670.69;5064183;28;19963;-65
2024/03/16 04:06:32;;;;;;;;;;;;;;;4.84;100.00;100670.75;5061897;28;20414;-66
2024/03/16 04:08:58;;;;;;;;;;;;;;;4.88;100.00;100669.53;5057000;28;19924;-67
2024/03/16 04:11:24;;;;;;;;;;;;;;;4.96;100.00;100669.75;5069398;28;19977;-65
2024/03/16 04:13:49;;;;;;;;;;;;;;;5.01;100.00;100659.63;5064409;28;19970;-66
2024/03/16 04:16:14;;;;;;;;;;;;;;;5.03;100.00;100668.25;5068522;28;20431;-67
2024/03/16 04:18:40;;;;;;;;;;;;;;;5.05;100.00;100674.25;5061789;28;19920;-67
2024/03/16 04:21:09;;;;;;;;;;;;;;;5.08;100.00;100675.78;5059466;28;19924;-67
2024/03/16 04:23:34;;;;;;;;;;;;;;;5.08;100.00;100667.88;5067000;28;19959;-64
2024/03/16 04:25:59;;;;;;;;;;;;;;;5.11;100.00;100683.44;5065301;28;20403;-66
2024/03/16 04:28:25;;;;;;;;;;;;;;;5.13;100.00;100666.50;5057086;28;20395;-65
2024/03/16 04:30:51;;;;;;;;;;;;;;;5.18;100.00;100660.81;5060471;28;20472;-64
2024/03/16 04:33:16;;;;;;;;;;;;;;;5.25;100.00;100670.75;5062609;28;19929;-65
2024/03/16 04:35:44;;;;;;;;;;;;;;;5.24;100.00;100657.69;5062328;28;19943;-67
2024/03/16 04:38:09;;;;;;;;;;;;;;;5.22;100.00;100665.75;5062791;28;19972;-65
2024/03/16 04:40:35;;;;;;;;;;;;;;;5.25;100.00;100665.47;5068534;28;19968;-66
2024/03/16 04:43:00;;;;;;;;;;;;;;;5.24;100.00;100671.72;5057623;28;20354;-65
2024/03/16 04:45:26;;;;;;;;;;;;;;;5.23;100.00;100667.41;5071127;28;19920;-63
2024/03/16 04:47:51;;;;;;;;;;;;;;;5.22;100.00;100675.47;5066187;28;19925;-64
2024/03/16 04:50:17;;;;;;;;;;;;;;;5.19;100.00;100668.63;5066885;28;19925;-64
2024/03/16 04:52:42;;;;;;;;;;;;;;;5.17;100.00;100673.19;5063782;28;19920;-66
2024/03/16 04:55:08;;;;;;;;;;;;;;;5.16;100.00;100671.53;5063396;28;20315;-67
2024/03/16 04:57:33;;;;;;;;;;;;;;;5.16;100.00;100671.53;5069532;28;20306;-67
2024/03/16 04:59:58;;;;;;;;;;;;;;;5.17;100.00;100672.34;5063587;28;20405;-69
2024/03/16 05:02:23;;;;;;;;;;;;;;;5.21;100.00;100682.56;5064364;28;19925;-68
2024/03/16 05:04:49;;;;;;;;;;;;;;;5.25;100.00;100670.75;5061424;28;19927;-65
2024/03/16 05:07:14;;;;;;;;;;;;;;;5.28;100.00;100678.41;5056568;28;19967;-66
2024/03/16 05:09:39;;;;;;;;;;;;;;;5.29;100.00;100669.53;5060276;28;19921;-69
2024/03/16 05:12:05;;;;;;;;;;;;;;;5.27;100.00;100662.72;5069623;28;19925;-69
2024/03/16 05:14:31;;;;;;;;;;;;;;;5.29;100.00;100674.81;5066316;28;19924;-65
2024/03/16 05:16:57;;;;;;;;;;;;;;;5.28;100.00;100672.31;5069071;28;19920;-68
2024/03/16 05:19:22;;;;;;;;;;;;;;;5.25;100.00;100675.22;5063446;28;20016;-68
2024/03/16 05:21:47;;;;;;;;;;;;;;;5.25;100.00;100676.03;5064933;28;19928;-67
2024/03/16 05:24:14;;;;;;;;;;;;;;;5.28;100.00;100665.22;5057772;28;19924;-67
2024/03/16 05:26:39;;;;;;;;;;;;;;;5.31;100.00;100674.69;5060031;28;19935;-68
2024/03/16 05:29:05;;;;;;;;;;;;;;;5.31;100.00;100669.41;5060499;28;19924;-67
2024/03/16 05:31:31;;;;;;;;;;;;;;;5.33;100.00;100664.81;5066538;28;20350;-69
2024/03/16 05:33:57;;;;;;;;;;;;;;;5.38;100.00;100664.41;5059503;28;19977;-70
2024/03/16 05:36:22;;;;;;;;;;;;;;;5.44;100.00;100663.88;5059896;28;19925;-67
2024/03/16 05:38:48;;;;;;;;;;;;;;;5.50;100.00;100664.22;5059670;28;20388;-68
2024/03/16 05:41:13;;;;;;;;;;;;;;;5.56;100.00;100662.84;5067831;28;19969;-65
2024/03/16 05:43:41;;;;;;;;;;;;;;;5.58;100.00;100656.47;5061420;28;20387;-68
2024/03/16 05:46:06;;;;;;;;;;;;;;;5.56;100.00;100665.50;5067935;28;19978;-67
2024/03/16 05:48:32;;;;;;;;;;;;;;;5.58;100.00;100660.91;5067081;28;20019;-66
2024/03/16 05:50:57;;;;;;;;;;;;;;;5.53;100.00;100660.47;5056745;28;19928;-68
2024/03/16 05:53:23;;;;;;;;;;;;;;;5.51;100.00;100654.50;5073720;28;19927;-68
2024/03/16 05:55:49;;;;;;;;;;;;;;;5.49;100.00;100656.41;5066995;28;19924;-69
2024/03/16 05:58:14;;;;;;;;;;;;;;;5.49;100.00;100667.84;5061755;28;19932;-75
2024/03/16 06:00:40;;;;;;;;;;;;;;;5.51;100.00;100662.41;5067409;28;19975;-72
2024/03/16 06:03:05;;;;;;;;;;;;;;;5.54;100.00;100662.16;5062226;28;19947;-71
2024/03/16 06:05:35;;;;;;;;;;;;;;;5.54;100.00;100662.97;5059111;28;19929;-69
2024/03/16 06:08:01;;;;;;;;;;;;;;;5.63;100.00;100669.25;5063625;28;19931;-65
2024/03/16 06:10:27;;;;;;;;;;;;;;;5.70;100.00;100678.31;5057383;28;19925;-68
2024/03/16 06:12:53;;;;;;;;;;;;;;;5.72;100.00;100673.75;5057019;28;19979;-67
2024/03/16 06:15:18;;;;;;;;;;;;;;;5.70;100.00;100670.41;5071232;28;20291;-67
2024/03/16 06:17:43;;;;;;;;;;;;;;;5.73;100.00;100679.88;5058316;28;20609;-67
2024/03/16 06:20:12;;;;;;;;;;;;;;;5.71;100.00;100671.22;5069766;28;19925;-66
2024/03/16 06:22:38;;;;;;;;;;;;;;;5.78;100.00;100670.59;5066147;28;19967;-66
2024/03/16 06:25:04;;;;;;;;;;;;;;;5.84;100.00;100677.97;5070462;28;19932;-66
2024/03/16 06:27:29;;;;;;;;;;;;;;;5.87;100.00;100677.69;5070380;28;19931;-67
2024/03/16 06:29:56;;;;;;;;;;;;;;;5.99;100.00;100675.81;5063543;28;19926;-69
2024/03/16 06:32:21;;;;;;;;;;;;;;;6.05;100.00;100674.44;5069820;28;19935;-68
2024/03/16 06:34:50;;;;;;;;;;;;;;;6.08;100.00;100668.91;5073528;28;19920;-72
2024/03/16 06:37:17;;;;;;;;;;;;;;;6.00;100.00;100666.06;5057911;28;20287;-69
2024/03/16 06:39:42;;;;;;;;;;;;;;;6.05;100.00;100662.03;5066058;28;19929;-70
2024/03/16 06:42:10;;;;;;;;;;;;;;;6.09;100.00;100657.34;5059839;28;19921;-67
2024/03/16 06:44:35;;;;;;;;;;;;;;;6.13;100.00;100656.94;5069323;28;19938;-70
2024/03/16 06:47:00;;;;;;;;;;;;;;;6.15;100.00;100664.72;5067938;28;19920;-69
2024/03/16 06:49:29;;;;;;;;;;;;;;;6.15;100.00;100677.94;5057240;28;19924;-70
2024/03/16 06:51:55;;;;;;;;;;;;;;;6.13;100.00;100683.38;5067062;28;19920;-70
2024/03/16 06:54:20;;;;;;;;;;;;;;;6.17;100.00;100689.22;5057900;28;19943;-70
2024/03/16 06:56:51;;;;;;;;;;;;;;;6.08;100.00;100680.31;5074130;28;19920;-71
2024/03/16 06:59:17;;;;;;;;;;;;;;;6.08;100.00;100682.13;5062587;28;20766;-69
2024/03/16 07:01:43;;;;;;;;;;;;;;;6.02;100.00;100680.00;5068630;28;20081;-68
2024/03/16 07:04:09;;;;;;;;;;;;;;;6.01;100.00;100691.53;5062625;28;19924;-71
2024/03/16 07:06:34;;;;;;;;;;;;;;;5.99;100.00;100690.84;5062088;28;19928;-69
2024/03/16 07:09:03;;;;;;;;;;;;;;;6.06;100.00;100678.75;5072680;28;19932;-69
2024/03/16 07:11:28;;;;;;;;;;;;;;;6.18;100.00;100680.31;5053306;28;19921;-67
2024/03/16 07:13:53;;;;;;;;;;;;;;;6.35;100.00;100671.69;5067440;28;19978;-69
2024/03/16 07:16:21;;;;;;;;;;;;;;;6.48;100.00;100682.88;5067116;28;19927;-65
2024/03/16 07:18:46;;;;;;;;;;;;;;;6.59;100.00;100689.81;5074787;28;20349;-68
2024/03/16 07:21:19;;;;;;;;;;;;;;;6.62;100.00;100701.94;5067425;28;19929;-71
2024/03/16 07:23:48;;;;;;;;;;;;;;;6.60;100.00;100695.94;5070842;28;20022;-71
2024/03/16 07:26:14;;;;;;;;;;;;;;;6.65;100.00;100699.00;5069586;28;19952;-71
2024/03/16 07:28:39;;;;;;;;;;;;;;;6.67;100.00;100703.22;5072988;28;20409;-72
2024/03/16 07:31:04;;;;;;;;;;;;;;;6.73;100.00;100715.06;5071565;28;19921;-69
2024/03/16 07:33:30;;;;;;;;;;;;;;;6.80;100.00;100702.94;5070731;28;19925;-71
2024/03/16 07:35:55;;;;;;;;;;;;;;;6.87;100.00;100709.31;5066949;28;19924;-71
2024/03/16 07:38:21;;;;;;;;;;;;;;;6.97;100.00;100704.03;5070196;28;20548;-70
2024/03/16 07:40:46;;;;;;;;;;;;;;;6.99;100.00;100705.56;5071146;28;20306;-73
2024/03/16 07:43:13;;;;;;;;;;;;;;;6.99;100.00;100708.22;5064199;28;19967;-69
2024/03/16 07:45:42;;;;;;;;;;;;;;;7.03;100.00;100701.66;5068375;28;19975;-71
2024/03/16 07:48:08;;;;;;;;;;;;;;;7.12;100.00;100698.16;5068175;28;19924;-72
2024/03/16 07:50:34;;;;;;;;;;;;;;;7.21;100.00;100699.09;5069758;28;19927;-72
2024/03/16 07:53:00;;;;;;;;;;;;;;;7.19;100.00;100697.59;5063672;28;19924;-70
2024/03/16 07:55:25;;;;;;;;;;;;;;;7.24;100.00;100692.72;5069877;28;19927;-69
2024/03/16 07:57:51;;;;;;;;;;;;;;;7.36;100.00;100694.22;5067178;28;19966;-70
2024/03/16 08:00:16;;;;;;;;;;;;;;;7.43;100.00;100690.84;5066472;28;19930;-72
2024/03/16 08:02:42;;;;;;;;;;;;;;;7.48;100.00;100687.75;5069328;28;19928;-68
2024/03/16 08:05:11;;;;;;;;;;;;;;;7.59;100.00;100695.53;5052914;28;19920;-70
2024/03/16 08:07:37;;;;;;;;;;;;;;;7.74;100.00;100695.88;5051778;28;20384;-71
2024/03/16 08:10:03;;;;;;;;;;;;;;;7.86;99.69;100696.56;5071255;28;20373;-70
2024/03/16 08:12:29;;;;;;;;;;;;;;;7.97;100.00;100683.09;5070389;28;19924;-70
2024/03/16 08:14:54;;;;;;;;;;;;;;;8.10;100.00;100694.22;5069593;28;20256;-69
2024/03/16 08:17:21;;;;;;;;;;;;;;;8.10;98.54;100699.50;5070491;28;19935;-68
2024/03/16 08:19:47;;;;;;;;;;;;;;;7.97;98.44;100691.06;5073122;28;19920;-72
2024/03/16 08:22:12;;;;;;;;;;;;;;;8.04;98.10;100702.72;5068518;28;19920;-68
2024/03/16 08:24:38;;;;;;;;;;;;;;;8.12;97.70;100700.19;5069684;28;20454;-71
2024/03/16 08:27:03;;;;;;;;;;;;;;;8.33;98.70;100705.22;5071788;28;19924;-70
2024/03/16 08:29:29;;;;;;;;;;;;;;;8.43;96.76;100710.50;5070349;28;19970;-70
2024/03/16 08:31:55;;;;;;;;;;;;;;;8.58;95.55;100709.00;5073571;28;19925;-69
2024/03/16 08:34:20;;;;;;;;;;;;;;;8.69;94.43;100716.75;5064306;28;19931;-69
2024/03/16 08:36:46;;;;;;;;;;;;;;;8.69;93.15;100724.72;5063276;28;19925;-67
2024/03/16 08:39:11;;;;;;;;;;;;;;;8.64;94.07;100724.31;5066800;28;19967;-67
2024/03/16 08:41:36;;;;;;;;;;;;;;;8.55;94.72;100722.56;5062076;28;19921;-70
2024/03/16 08:44:01;;;;;;;;;;;;;;;8.46;94.80;100726.13;5067926;28;19928;-66
2024/03/16 08:46:27;;;;;;;;;;;;;;;8.19;95.04;100725.13;5069361;28;19921;-66
2024/03/16 08:48:52;;;;;;;;;;;;;;;8.16;97.44;100714.81;5061577;28;19921;-68
2024/03/16 08:51:24;;;;;;;;;;;;;;;8.18;97.11;100715.50;5070426;28;19930;-70
2024/03/16 08:53:50;;;;;;;;;;;;;;;8.21;97.61;100712.56;5038144;28;19967;-67
2024/03/16 08:56:15;;;;;;;;;;;;;;;8.25;97.44;100697.19;5057612;28;19985;-69
2024/03/16 08:58:47;;;;;;;;;;;;;;;8.30;97.20;100689.59;5060134;28;19920;-70
2024/03/16 09:01:12;;;;;;;;;;;;;;;8.39;96.23;100691.41;5078696;28;20422;-66
2024/03/16 09:03:38;;;;;;;;;;;;;;;8.53;96.46;100692.69;5067356;28;19928;-72
2024/03/16 09:06:04;;;;;;;;;;;;;;;8.64;94.61;100684.50;5057720;28;19932;-70
2024/03/16 09:08:30;;;;;;;;;;;;;;;8.76;95.29;100685.94;5064405;28;19924;-66
2024/03/16 09:10:56;;;;;;;;;;;;;;;8.94;93.34;100693.88;5065901;28;19967;-67
2024/03/16 09:13:21;;;;;;;;;;;;;;;8.89;92.45;100699.66;5060283;28;20488;-70
2024/03/16 09:15:46;;;;;;;;;;;;;;;9.04;93.64;100705.28;5062037;28;19924;-67
2024/03/16 09:18:12;;;;;;;;;;;;;;;9.00;91.76;100702.09;5060624;28;19924;-68
2024/03/16 09:20:43;;;;;;;;;;;;;;;8.92;93.08;100707.31;5054019;28;20042;-68
2024/03/16 09:23:09;;;;;;;;;;;;;;;8.78;92.50;100709.69;5064039;28;19925;-70
2024/03/16 09:25:34;;;;;;;;;;;;;;;8.78;93.50;100705.22;5054261;28;19932;-69
2024/03/16 09:27:59;;;;;;;;;;;;;;;8.75;93.22;100700.22;5062955;28;19931;-70
2024/03/16 09:30:25;;;;;;;;;;;;;;;8.69;94.66;100706.13;5071041;28;19924;-69
2024/03/16 09:32:53;;;;;;;;;;;;;;;8.63;94.78;100704.06;5042733;28;20153;-71
2024/03/16 09:35:18;;;;;;;;;;;;;;;8.56;95.13;100693.22;5057139;28;19976;-72
2024/03/16 09:37:43;;;;;;;;;;;;;;;8.49;95.47;100684.19;5063945;28;19927;-70
2024/03/16 09:40:13;;;;;;;;;;;;;;;8.49;96.24;100693.97;5063284;28;19932;-69
2024/03/16 09:42:41;;;;;;;;;;;;;;;8.54;96.59;100697.00;5066029;28;19921;-72
2024/03/16 09:45:17;;;;;;;;;;;;;;;8.59;94.79;100695.56;5046194;28;19928;-71
2024/03/16 09:47:47;;;;;;;;;;;;;;;8.65;94.70;100694.13;5066373;28;20497;-68
2024/03/16 09:50:13;;;;;;;;;;;;;;;8.65;95.03;100688.81;5058496;28;19931;-71
2024/03/16 09:52:42;;;;;;;;;;;;;;;8.72;95.58;100684.59;5063651;28;20027;-68
2024/03/16 09:55:11;;;;;;;;;;;;;;;8.78;94.79;100694.59;5067606;28;19921;-69
2024/03/16 09:57:40;;;;;;;;;;;;;;;8.78;94.81;100693.75;5063765;28;20338;-67
2024/03/16 10:00:08;;;;;;;;;;;;;;;8.74;94.81;100693.22;5062503;28;20311;-68
2024/03/16 10:02:33;;;;;;;;;;;;;;;8.74;94.91;100692.41;5062562;28;19925;-69
2024/03/16 10:04:58;;;;;;;;;;;;;;;8.30;95.24;100636.53;5059927;28;20350;-69
2024/03/16 10:07:25;;;;;;;;;;;;;;;8.54;95.50;100697.84;5064368;28;19924;-67
2024/03/16 10:09:55;;;;;;;;;;;;;;;8.53;97.08;100692.69;5070588;28;19946;-67
2024/03/16 10:12:21;;;;;;;;;;;;;;;8.46;96.71;100686.31;5074155;28;19932;-70
2024/03/16 10:15:20;;;;;;;;;;;;;;;8.45;97.08;100687.31;5067926;28;19948;-66
2024/03/16 10:17:52;;;;;;;;;;;;;;;8.53;97.39;100690.88;5061721;28;20386;-67
2024/03/16 10:20:20;;;;;;;;;;;;;;;8.61;96.86;100684.78;5054746;28;19924;-68
2024/03/16 10:22:46;;;;;;;;;;;;;;;8.65;96.51;100684.34;5060116;28;19981;-68
2024/03/16 10:25:13;;;;;;;;;;;;;;;8.65;97.27;100688.81;5068052;28;20399;-67
2024/03/16 10:27:42;;;;;;;;;;;;;;;8.67;96.95;100684.19;5064610;28;19925;-69
2024/03/16 10:30:11;;;;;;;;;;;;;;;8.61;96.19;100690.09;5052672;28;19925;-68
2024/03/16 10:33:18;;;;;;;;;;;;;;;8.47;97.20;100678.22;5056078;28;19932;-69
2024/03/16 10:35:34;;;;;;;;;;;;;;;8.39;97.98;100683.44;5063543;28;19930;-67
2024/03/16 10:38:03;;;;;;;;;;;;;;;8.29;98.00;100675.50;5063959;28;20015;-67
2024/03/16 10:40:28;;;;;;;;;;;;;;;8.25;98.65;100682.09;5054152;28;20032;-70
2024/03/16 10:42:54;;;;;;;;;;;;;;;8.20;98.99;100681.72;5071671;28;20023;-67
2024/03/16 10:45:20;;;;;;;;;;;;;;;8.19;99.76;100688.00;5054491;28;20383;-67
2024/03/16 10:47:46;;;;;;;;;;;;;;;8.17;99.77;100684.66;5060122;28;20027;-69
2024/03/16 10:50:12;;;;;;;;;;;;;;;7.99;99.70;100657.25;5068304;28;19929;-68
2024/03/16 10:52:41;;;;;;;;;;;;;;;8.23;100.00;100686.72;5066979;28;19964;-68
2024/03/16 10:55:10;;;;;;;;;;;;;;;8.22;100.00;100687.69;5058280;28;20016;-69
2024/03/16 10:57:38;;;;;;;;;;;;;;;8.16;100.00;100693.59;5061214;28;19928;-69
2024/03/16 11:00:12;;;;;;;;;;;;;;;8.14;100.00;100684.13;5057866;28;19925;-68
2024/03/16 11:02:46;;;;;;;;;;;;;;;8.13;100.00;100688.59;5044109;28;19927;-70
2024/03/16 11:05:30;;;;;;;;;;;;;;;8.11;100.00;100689.72;5060176;28;19977;-71
2024/03/16 11:08:00;;;;;;;;;;;;;;;8.05;100.00;100696.44;5064906;28;19994;-68
2024/03/16 11:10:36;;;;;;;;;;;;;;;7.97;100.00;100691.88;5055977;28;19970;-69
2024/03/16 11:13:17;;;;;;;;;;;;;;;7.99;100.00;100697.03;5066926;28;19928;-71
2024/03/16 11:15:44;;;;;;;;;;;;;;;8.02;100.00;100702.88;5051519;28;20378;-68
2024/03/16 11:18:29;;;;;;;;;;;;;;;8.06;100.00;100708.72;5052848;28;19925;-73
2024/03/16 11:20:57;;;;;;;;;;;;;;;8.10;100.00;100712.78;5051053;28;19924;-69
2024/03/16 11:23:25;;;;;;;;;;;;;;;8.16;100.00;100720.13;5076348;28;19924;-67
2024/03/16 11:25:51;;;;;;;;;;;;;;;8.21;100.00;100725.81;5078578;28;19930;-65
2024/03/16 11:28:17;;;;;;;;;;;;;;;8.24;100.00;100728.19;5076483;28;19924;-69
2024/03/16 11:30:46;;;;;;;;;;;;;;;8.23;100.00;100726.50;5064313;28;19928;-68
2024/03/16 11:33:15;;;;;;;;;;;;;;;8.23;100.00;100723.84;5060425;28;20332;-69
2024/03/16 11:35:40;;;;;;;;;;;;;;;8.24;100.00;100717.56;5054404;28;20350;-70
2024/03/16 11:38:12;;;;;;;;;;;;;;;8.25;100.00;100719.22;5064650;28;19924;-68
2024/03/16 11:40:38;;;;;;;;;;;;;;;8.24;100.00;100717.56;5063869;28;19932;-67
2024/03/16 11:43:03;;;;;;;;;;;;;;;8.23;100.00;100715.91;5064690;28;19925;-70
2024/03/16 11:45:36;;;;;;;;;;;;;;;8.25;100.00;100713.09;5060610;28;19943;-69
2024/03/16 11:48:05;;;;;;;;;;;;;;;8.28;100.00;100712.78;5065102;28;19955;-68
2024/03/16 11:50:33;;;;;;;;;;;;;;;8.28;100.00;100724.25;5069247;28;19931;-73
2024/03/16 11:53:13;;;;;;;;;;;;;;;8.33;100.00;100722.00;5064895;28;20344;-69
2024/03/16 11:55:51;;;;;;;;;;;;;;;8.34;99.67;100721.03;5069080;28;19931;-70
2024/03/16 11:58:20;;;;;;;;;;;;;;;8.33;100.00;100735.28;5067681;28;19924;-74
2024/03/16 12:00:45;;;;;;;;;;;;;;;8.29;99.78;100719.78;5061588;28;20023;-69
2024/03/16 12:03:11;;;;;;;;;;;;;;;8.27;100.00;100725.22;5072079;28;20023;-73
2024/03/16 12:05:37;;;;;;;;;;;;;;;8.29;100.00;100715.28;5067644;28;20256;-72
2024/03/16 12:08:04;;;;;;;;;;;;;;;8.34;100.00;100715.72;5062411;28;19968;-71
2024/03/16 12:10:36;;;;;;;;;;;;;;;8.42;100.00;100715.00;5069498;28;20291;-70
2024/03/16 12:13:06;;;;;;;;;;;;;;;8.52;100.00;100721.06;5064445;28;20395;-67
2024/03/16 12:15:35;;;;;;;;;;;;;;;8.59;99.38;100722.13;5057112;28;20368;-69
2024/03/16 12:18:01;;;;;;;;;;;;;;;8.65;99.75;100710.88;5053365;28;20378;-66
2024/03/16 12:20:27;;;;;;;;;;;;;;;8.68;99.73;100717.75;5058936;28;19924;-68
2024/03/16 12:22:56;;;;;;;;;;;;;;;8.75;99.88;100721.44;5061365;28;20252;-68
2024/03/16 12:25:25;;;;;;;;;;;;;;;8.76;99.56;100712.50;5065700;28;19924;-68
2024/03/16 12:27:52;;;;;;;;;;;;;;;8.64;98.87;100717.19;5062897;28;19924;-67
2024/03/16 12:30:18;;;;;;;;;;;;;;;8.54;99.03;100718.25;5064450;28;19932;-68
2024/03/16 12:32:43;;;;;;;;;;;;;;;8.45;99.37;100719.16;5058894;28;19925;-67
2024/03/16 12:35:14;;;;;;;;;;;;;;;8.47;99.93;100722.50;5062128;28;19932;-68
2024/03/16 12:37:40;;;;;;;;;;;;;;;8.41;99.07;100723.09;5066915;28;19929;-66
2024/03/16 12:40:06;;;;;;;;;;;;;;;8.41;99.81;100720.44;5059818;28;19931;-68